Time;durP1;ratioP1;P1;durP2;ratioP2;P2;SDS_P1;SDS_P2;PMS_P1;PMS_P2;Temp;Humidity;BMP_temperature;BMP_pressure;BME280_temperature;BME280_humidity;BME280_pressure;Samples;Min_cycle;Max_cycle;Signal;HPM_P1;HPM_P2
2022/05/13 00:02:08;;;;;;;1.70;1.20;;;26.40;47.50;;;;;;5021636;28;20214;-64
2022/05/13 00:04:34;;;;;;;1.50;1.13;;;26.40;47.50;;;;;;5017580;28;20041;-63
2022/05/13 00:07:00;;;;;;;1.33;1.13;;;26.40;47.60;;;;;;5018924;28;20511;-60
2022/05/13 00:09:56;;;;;;;1.63;1.17;;;26.30;47.60;;;;;;5018840;28;20079;-63
2022/05/13 00:12:12;;;;;;;1.50;1.10;;;26.30;47.60;;;;;;5021089;28;20425;-64
2022/05/13 00:14:38;;;;;;;1.10;1.00;;;26.30;47.60;;;;;;5019737;28;20033;-62
2022/05/13 00:17:04;;;;;;;1.30;0.98;;;26.30;47.60;;;;;;5021232;28;20087;-63
2022/05/13 00:19:31;;;;;;;1.48;1.17;;;26.30;47.70;;;;;;5016319;28;20124;-62
2022/05/13 00:21:57;;;;;;;1.27;1.10;;;26.30;47.70;;;;;;5020330;28;20167;-64
2022/05/13 00:24:22;;;;;;;1.77;1.23;;;26.30;47.70;;;;;;5018348;28;20115;-62
2022/05/13 00:26:48;;;;;;;1.80;1.27;;;26.30;47.70;;;;;;5021550;28;20042;-65
2022/05/13 00:29:14;;;;;;;1.48;1.13;;;26.30;47.80;;;;;;5021902;28;20356;-60
2022/05/13 00:31:39;;;;;;;1.77;1.27;;;26.20;47.80;;;;;;5022108;28;20119;-62
2022/05/13 00:34:05;;;;;;;1.20;1.00;;;26.20;47.70;;;;;;5018317;28;20034;-61
2022/05/13 00:36:31;;;;;;;1.33;1.20;;;26.20;47.80;;;;;;5019860;28;20039;-63
2022/05/13 00:38:56;;;;;;;1.35;1.13;;;26.20;47.80;;;;;;5018914;28;20100;-62
2022/05/13 00:41:22;;;;;;;1.70;1.17;;;26.10;47.70;;;;;;5020239;28;20029;-61
2022/05/13 00:43:52;;;;;;;1.30;1.10;;;26.20;47.80;;;;;;5020956;28;20484;-62
2022/05/13 00:46:18;;;;;;;1.20;1.00;;;26.20;47.80;;;;;;5020605;28;20037;-60
2022/05/13 00:48:45;;;;;;;1.45;1.10;;;26.10;47.80;;;;;;5019311;28;20029;-62
2022/05/13 00:51:16;;;;;;;1.48;1.10;;;26.20;47.90;;;;;;5020861;28;20064;-61
2022/05/13 00:53:43;;;;;;;1.58;1.17;;;26.10;47.80;;;;;;5019282;28;20363;-63
2022/05/13 00:56:08;;;;;;;1.80;1.20;;;26.10;47.80;;;;;;5019783;28;20160;-63
2022/05/13 00:58:37;;;;;;;1.33;1.00;;;26.10;47.80;;;;;;5021302;28;20112;-64
2022/05/13 01:01:03;;;;;;;1.77;1.20;;;26.10;47.80;;;;;;5017257;28;20072;-63
2022/05/13 01:03:30;;;;;;;1.20;1.10;;;26.10;48.40;;;;;;5019396;28;20029;-64
2022/05/13 01:05:59;;;;;;;1.25;1.00;;;26.10;47.90;;;;;;5018723;28;20024;-64
2022/05/13 01:08:26;;;;;;;1.13;1.02;;;26.10;47.90;;;;;;5019806;28;20139;-62
2022/05/13 01:10:54;;;;;;;1.45;1.15;;;26.10;47.90;;;;;;5019550;28;20411;-63
2022/05/13 01:13:23;;;;;;;1.67;1.10;;;26.10;47.90;;;;;;5019300;28;20029;-60
2022/05/13 01:15:51;;;;;;;1.30;1.07;;;26.00;47.80;;;;;;5019091;28;20033;-63
2022/05/13 01:18:33;;;;;;;2.17;1.20;;;26.00;47.90;;;;;;5002530;28;20053;-64
2022/05/13 01:21:00;;;;;;;1.40;1.00;;;26.10;47.90;;;;;;5018771;28;20033;-64
2022/05/13 01:23:26;;;;;;;1.60;1.20;;;26.00;47.90;;;;;;5018450;28;20025;-62
2022/05/13 01:26:03;;;;;;;1.70;1.20;;;26.00;47.90;;;;;;5018697;28;20460;-62
2022/05/13 01:28:38;;;;;;;1.35;1.05;;;26.00;47.90;;;;;;5023311;28;20113;-62
2022/05/13 01:31:08;;;;;;;1.40;1.10;;;26.00;47.90;;;;;;5021782;28;20128;-64
2022/05/13 01:33:34;;;;;;;1.63;1.15;;;26.00;47.90;;;;;;5024296;28;20128;-64
2022/05/13 01:36:02;;;;;;;1.45;1.10;;;26.00;47.90;;;;;;5022128;28;20030;-63
2022/05/13 01:38:31;;;;;;;2.38;1.10;;;26.00;47.90;;;;;;5023435;28;20471;-62
2022/05/13 01:40:58;;;;;;;1.20;1.10;;;26.00;47.90;;;;;;5025166;28;20183;-63
2022/05/13 01:43:24;;;;;;;1.17;1.00;;;26.00;48.00;;;;;;5022585;28;20032;-61
2022/05/13 01:45:50;;;;;;;1.52;1.10;;;26.00;47.90;;;;;;5024364;28;20033;-64
2022/05/13 01:48:16;;;;;;;1.27;1.05;;;25.90;47.90;;;;;;5021183;28;20540;-62
2022/05/13 01:50:42;;;;;;;1.73;1.10;;;25.90;47.90;;;;;;5023071;28;21006;-63
2022/05/13 01:53:08;;;;;;;1.55;1.10;;;25.90;47.90;;;;;;5022771;28;20155;-62
2022/05/13 01:55:35;;;;;;;1.60;1.10;;;25.90;47.90;;;;;;5024580;28;20057;-62
2022/05/13 01:58:01;;;;;;;1.30;1.00;;;25.90;47.90;;;;;;5025004;28;20572;-62
2022/05/13 02:00:27;;;;;;;1.40;1.20;;;25.90;48.00;;;;;;5022289;28;20034;-64
2022/05/13 02:05:37;;;;;;;1.40;1.00;;;25.90;48.00;;;;;;5019576;28;20048;-64
2022/05/13 02:08:03;;;;;;;1.20;1.00;;;25.90;48.00;;;;;;5020431;28;20029;-62
2022/05/13 02:10:29;;;;;;;1.40;1.00;;;25.90;48.00;;;;;;5020388;28;20108;-64
2022/05/13 02:12:55;;;;;;;1.25;1.15;;;25.90;48.00;;;;;;5021507;28;20048;-60
2022/05/13 02:15:21;;;;;;;1.10;0.90;;;25.80;48.40;;;;;;5018852;28;20033;-64
2022/05/13 02:17:47;;;;;;;1.30;1.02;;;25.80;47.90;;;;;;5021502;28;20049;-64
2022/05/13 02:20:13;;;;;;;1.40;1.10;;;25.80;48.00;;;;;;5021117;28;20072;-64
2022/05/13 02:22:38;;;;;;;1.20;0.90;;;25.80;48.00;;;;;;5022917;28;20025;-64
2022/05/13 02:25:05;;;;;;;1.60;1.13;;;25.80;48.00;;;;;;5018928;28;20124;-61
2022/05/13 02:27:31;;;;;;;1.38;1.02;;;25.80;48.00;;;;;;5020278;28;20037;-64
2022/05/13 02:29:56;;;;;;;1.38;1.10;;;25.80;48.00;;;;;;5021194;28;20036;-65
2022/05/13 02:32:22;;;;;;;1.30;1.10;;;25.80;48.00;;;;;;5023529;28;20068;-62
2022/05/13 02:34:47;;;;;;;1.55;1.15;;;25.80;48.00;;;;;;5019734;28;20041;-60
2022/05/13 02:37:13;;;;;;;1.10;1.00;;;25.80;48.00;;;;;;5020497;28;20490;-61
2022/05/13 02:39:39;;;;;;;1.10;1.00;;;25.80;48.50;;;;;;5017561;28;20039;-62
2022/05/13 02:42:05;;;;;;;1.10;0.90;;;25.80;48.00;;;;;;5023685;28;20087;-63
2022/05/13 02:44:31;;;;;;;1.77;1.10;;;25.80;48.00;;;;;;5020556;28;20029;-62
2022/05/13 02:46:56;;;;;;;1.65;1.13;;;25.70;47.90;;;;;;5020735;28;20037;-64
2022/05/13 02:49:22;;;;;;;1.38;1.00;;;25.80;48.00;;;;;;5019299;28;20097;-62
2022/05/13 02:51:49;;;;;;;1.40;1.10;;;25.70;48.00;;;;;;5021986;28;20080;-64
2022/05/13 02:54:16;;;;;;;1.60;1.10;;;25.70;48.00;;;;;;5019980;28;20490;-62
2022/05/13 02:56:42;;;;;;;1.70;1.23;;;25.70;48.00;;;;;;5025597;28;20040;-60
2022/05/13 02:59:08;;;;;;;1.25;1.00;;;25.70;48.50;;;;;;5019787;28;20635;-64
2022/05/13 03:01:34;;;;;;;2.15;1.10;;;25.70;48.00;;;;;;5019966;28;20498;-62
2022/05/13 03:04:00;;;;;;;1.42;1.02;;;25.70;48.00;;;;;;4982415;28;1082864;-61
2022/05/13 03:06:26;;;;;;;1.55;1.10;;;25.70;48.00;;;;;;5021698;28;20025;-62
2022/05/13 03:08:53;;;;;;;1.27;1.10;;;25.70;48.00;;;;;;5021633;28;20419;-63
2022/05/13 03:11:20;;;;;;;1.38;0.93;;;25.70;48.00;;;;;;5020190;28;20123;-63
2022/05/13 03:13:47;;;;;;;1.30;1.00;;;25.70;48.50;;;;;;5020984;28;20047;-63
2022/05/13 03:16:18;;;;;;;1.35;1.10;;;25.70;48.00;;;;;;5020537;28;20434;-62
2022/05/13 03:18:45;;;;;;;1.38;1.10;;;25.70;48.00;;;;;;5019181;28;20022;-63
2022/05/13 03:21:11;;;;;;;2.13;1.13;;;25.70;48.00;;;;;;5019654;28;20645;-64
2022/05/13 03:23:37;;;;;;;1.10;0.95;;;25.70;48.00;;;;;;5019846;28;20037;-60
2022/05/13 03:26:04;;;;;;;1.52;1.10;;;25.70;48.00;;;;;;5020841;28;20051;-63
2022/05/13 03:28:29;;;;;;;1.08;0.98;;;25.70;48.10;;;;;;5018897;28;20443;-65
2022/05/13 03:30:55;;;;;;;1.40;1.10;;;25.70;48.10;;;;;;5020767;28;20048;-63
2022/05/13 03:33:22;;;;;;;1.48;1.02;;;25.60;48.00;;;;;;5019019;28;20036;-61
2022/05/13 03:35:48;;;;;;;1.05;0.95;;;25.60;48.00;;;;;;5019402;28;20032;-62
2022/05/13 03:38:13;;;;;;;1.55;1.00;;;25.60;48.10;;;;;;5020380;28;20071;-62
2022/05/13 03:40:39;;;;;;;1.35;1.05;;;25.70;48.20;;;;;;5019768;28;20060;-60
2022/05/13 03:43:05;;;;;;;1.30;1.00;;;25.60;48.10;;;;;;5021990;28;20075;-63
2022/05/13 03:45:32;;;;;;;1.30;1.00;;;25.60;48.10;;;;;;5019540;28;20030;-64
2022/05/13 03:48:02;;;;;;;1.05;0.95;;;25.60;48.10;;;;;;5020813;28;20037;-63
2022/05/13 03:50:28;;;;;;;1.25;1.10;;;25.60;48.10;;;;;;5017841;28;20040;-64
2022/05/13 03:52:54;;;;;;;1.58;1.10;;;25.60;48.20;;;;;;5011214;28;20029;-62
2022/05/13 03:55:20;;;;;;;3.75;1.27;;;25.60;48.40;;;;;;5020300;28;20100;-62
2022/05/13 03:57:46;;;;;;;1.80;1.15;;;25.60;48.10;;;;;;5020282;28;20133;-63
2022/05/13 04:00:13;;;;;;;1.30;1.10;;;25.60;48.20;;;;;;5017952;28;20049;-62
2022/05/13 04:02:38;;;;;;;1.30;1.00;;;25.60;48.20;;;;;;5021277;28;20455;-64
2022/05/13 04:10:34;;;;;;;1.20;1.00;;;25.60;48.20;;;;;;5021134;28;20538;-63
2022/05/13 04:18:28;;;;;;;1.50;1.10;;;25.60;48.20;;;;;;5020650;28;20088;-63
2022/05/13 04:20:53;;;;;;;1.40;1.20;;;25.60;48.20;;;;;;5018668;28;20048;-62
2022/05/13 04:23:19;;;;;;;1.17;1.00;;;25.60;48.20;;;;;;5018687;28;20449;-64
2022/05/13 04:25:45;;;;;;;1.48;1.10;;;25.50;48.20;;;;;;5021604;28;20032;-64
2022/05/13 04:28:11;;;;;;;1.40;1.00;;;25.50;48.20;;;;;;5021216;28;21566;-62
2022/05/13 04:30:37;;;;;;;1.25;1.00;;;25.50;48.20;;;;;;5018037;28;20114;-62
2022/05/13 04:33:03;;;;;;;1.60;1.20;;;25.50;48.70;;;;;;5020012;28;20052;-61
2022/05/13 04:35:28;;;;;;;1.42;1.10;;;25.50;48.20;;;;;;5015276;28;20084;-64
2022/05/13 04:37:54;;;;;;;1.55;1.10;;;25.50;48.30;;;;;;5019833;28;20034;-63
2022/05/13 04:40:19;;;;;;;1.52;1.10;;;25.50;48.20;;;;;;5017681;28;20108;-64
2022/05/13 04:42:51;;;;;;;1.25;1.00;;;25.50;48.30;;;;;;5021548;28;20438;-64
2022/05/13 04:45:27;;;;;;;1.83;1.20;;;25.50;48.20;;;;;;5018528;28;20040;-61
2022/05/13 04:48:18;;;;;;;1.75;1.10;;;25.50;48.20;;;;;;5017733;28;22585;-63
2022/05/13 04:50:58;;;;;;;1.38;1.13;;;25.50;48.20;;;;;;5016794;28;20070;-60
2022/05/13 04:53:27;;;;;;;1.15;0.90;;;25.50;48.30;;;;;;5018639;28;20067;-63
2022/05/13 04:55:55;;;;;;;1.30;1.00;;;25.50;48.30;;;;;;5020727;28;20037;-64
2022/05/13 04:58:22;;;;;;;1.30;1.10;;;25.50;48.30;;;;;;5019644;28;20037;-63
2022/05/13 05:00:49;;;;;;;1.25;1.00;;;25.50;48.30;;;;;;4997912;28;20083;-63
2022/05/13 05:03:20;;;;;;;1.60;1.10;;;25.50;48.40;;;;;;5017215;28;20595;-63
2022/05/13 05:05:46;;;;;;;1.42;1.10;;;25.40;48.80;;;;;;5017168;28;20099;-61
2022/05/13 05:08:12;;;;;;;1.23;1.00;;;25.40;48.20;;;;;;5018916;28;22978;-61
2022/05/13 05:10:39;;;;;;;1.35;1.00;;;25.50;48.30;;;;;;5018945;28;20037;-64
2022/05/13 05:13:08;;;;;;;1.30;1.10;;;25.40;48.30;;;;;;5021607;28;20026;-64
2022/05/13 05:15:37;;;;;;;1.38;1.10;;;25.40;48.30;;;;;;5015538;28;20037;-60
2022/05/13 05:18:03;;;;;;;1.30;1.00;;;25.40;48.30;;;;;;5021286;28;20504;-61
2022/05/13 05:20:29;;;;;;;1.00;0.90;;;25.40;48.30;;;;;;5014940;28;20513;-64
2022/05/13 05:22:55;;;;;;;1.33;1.00;;;25.40;48.30;;;;;;5020249;28;20128;-62
2022/05/13 05:25:21;;;;;;;1.00;0.90;;;25.50;48.40;;;;;;5019116;28;20108;-61
2022/05/13 05:27:48;;;;;;;1.10;1.00;;;25.50;48.30;;;;;;5018525;28;20091;-63
2022/05/13 05:30:15;;;;;;;1.10;0.90;;;25.50;48.40;;;;;;5018161;28;20405;-61
2022/05/13 05:32:41;;;;;;;1.02;0.90;;;25.50;48.30;;;;;;5021037;28;20033;-59
2022/05/13 05:35:10;;;;;;;1.00;0.90;;;25.50;48.30;;;;;;5016676;28;20132;-61
2022/05/13 05:37:35;;;;;;;1.05;0.90;;;25.50;48.20;;;;;;5020158;28;20033;-63
2022/05/13 05:40:02;;;;;;;1.23;0.90;;;25.60;48.30;;;;;;5018592;28;20059;-64
2022/05/13 05:42:28;;;;;;;1.30;0.95;;;25.60;48.20;;;;;;5019679;28;20033;-61
2022/05/13 05:44:53;;;;;;;1.10;0.90;;;25.60;48.10;;;;;;5019435;28;20049;-63
2022/05/13 05:47:23;;;;;;;1.23;0.90;;;25.70;48.10;;;;;;5019563;28;20037;-60
2022/05/13 05:49:49;;;;;;;1.00;0.90;;;25.70;48.00;;;;;;5017227;28;20029;-62
2022/05/13 05:52:15;;;;;;;1.10;1.00;;;25.70;47.90;;;;;;5014348;28;20056;-61
2022/05/13 05:57:26;;;;;;;1.35;0.95;;;25.80;47.90;;;;;;5019704;28;20043;-60
2022/05/13 05:59:52;;;;;;;1.00;0.90;;;25.80;47.90;;;;;;5019789;28;20033;-60
2022/05/13 06:02:17;;;;;;;1.38;1.10;;;25.80;47.80;;;;;;5017555;28;20045;-61
2022/05/13 06:04:43;;;;;;;1.38;1.17;;;25.80;48.20;;;;;;5018483;28;20537;-62
2022/05/13 06:07:12;;;;;;;1.05;0.95;;;25.90;47.80;;;;;;5020535;28;20029;-64
2022/05/13 06:09:39;;;;;;;1.08;0.98;;;25.90;47.70;;;;;;5018868;28;20029;-61
2022/05/13 06:12:07;;;;;;;1.10;1.00;;;25.90;47.70;;;;;;5020440;28;20029;-61
2022/05/13 06:14:33;;;;;;;1.48;1.13;;;25.90;47.60;;;;;;5024623;28;20038;-64
2022/05/13 06:16:59;;;;;;;1.40;1.10;;;25.90;47.60;;;;;;5022605;28;20033;-61
2022/05/13 06:19:25;;;;;;;1.58;1.10;;;26.00;47.60;;;;;;5019079;28;20056;-62
2022/05/13 06:21:51;;;;;;;1.23;1.00;;;26.00;47.60;;;;;;5021566;28;20112;-62
2022/05/13 06:24:18;;;;;;;1.42;1.00;;;26.00;47.50;;;;;;5021832;28;20060;-63
2022/05/13 06:26:48;;;;;;;1.40;1.05;;;26.00;47.50;;;;;;5022305;28;20065;-64
2022/05/13 06:29:22;;;;;;;1.17;0.90;;;26.00;47.50;;;;;;5023447;28;20076;-62
2022/05/13 06:31:47;;;;;;;1.30;1.20;;;26.10;47.60;;;;;;5021697;28;20037;-63
2022/05/13 06:34:14;;;;;;;1.40;1.00;;;26.00;47.50;;;;;;5019571;28;20858;-62
2022/05/13 06:36:40;;;;;;;1.00;0.88;;;26.10;47.50;;;;;;5023464;28;20199;-62
2022/05/13 06:39:06;;;;;;;1.45;1.20;;;26.10;47.50;;;;;;5020698;28;20433;-63
2022/05/13 06:41:37;;;;;;;1.40;1.10;;;26.10;47.50;;;;;;5023571;28;20044;-61
2022/05/13 06:44:06;;;;;;;1.83;1.10;;;26.10;48.00;;;;;;5023095;28;20053;-62
2022/05/13 06:46:35;;;;;;;1.08;0.93;;;26.10;47.40;;;;;;5005099;28;20101;-62
2022/05/13 06:49:03;;;;;;;1.48;1.10;;;26.20;47.50;;;;;;5019797;28;20548;-60
2022/05/13 06:51:31;;;;;;;1.60;1.15;;;26.20;47.40;;;;;;5020392;28;20464;-62
2022/05/13 06:53:56;;;;;;;1.50;1.20;;;26.20;47.40;;;;;;5023205;28;20029;-62
2022/05/13 06:56:22;;;;;;;1.42;1.08;;;26.20;47.40;;;;;;5022290;28;20515;-59
2022/05/13 06:58:48;;;;;;;1.67;1.20;;;26.20;47.30;;;;;;5022890;28;20082;-63
2022/05/13 07:01:13;;;;;;;1.20;1.10;;;26.30;47.40;;;;;;5020289;28;20033;-63
2022/05/13 07:03:39;;;;;;;1.25;1.00;;;26.20;47.30;;;;;;5023100;28;20040;-62
2022/05/13 07:06:05;;;;;;;1.52;1.10;;;26.30;47.90;;;;;;5021666;28;20037;-63
2022/05/13 07:08:31;;;;;;;1.30;1.00;;;26.30;47.30;;;;;;5022306;28;20083;-63
2022/05/13 07:10:57;;;;;;;1.08;0.90;;;26.30;47.30;;;;;;5019957;28;20040;-62
2022/05/13 07:13:23;;;;;;;1.45;1.10;;;26.30;47.80;;;;;;5021072;28;20021;-62
2022/05/13 07:15:49;;;;;;;1.60;1.10;;;26.30;47.80;;;;;;5022122;28;20458;-63
2022/05/13 07:18:14;;;;;;;1.40;1.10;;;26.30;47.20;;;;;;5023325;28;20250;-62
2022/05/13 07:20:40;;;;;;;1.50;1.20;;;26.30;47.20;;;;;;5020210;28;20412;-60
2022/05/13 07:23:06;;;;;;;2.35;1.40;;;26.30;47.20;;;;;;5021640;28;20041;-62
2022/05/13 07:25:32;;;;;;;1.75;1.15;;;26.30;47.20;;;;;;5020066;28;20025;-63
2022/05/13 07:27:58;;;;;;;1.23;0.98;;;26.40;47.20;;;;;;5022859;28;20037;-64
2022/05/13 07:30:24;;;;;;;1.58;1.20;;;26.40;47.20;;;;;;5020978;28;20154;-60
2022/05/13 07:32:50;;;;;;;1.58;1.00;;;26.40;47.20;;;;;;5021484;28;20120;-61
2022/05/13 07:35:15;;;;;;;1.38;1.15;;;26.40;47.20;;;;;;5017730;28;20029;-64
2022/05/13 07:37:41;;;;;;;1.38;1.20;;;26.40;47.10;;;;;;5019590;28;20580;-61
2022/05/13 07:42:52;;;;;;;1.73;1.40;;;26.40;47.10;;;;;;5020909;28;20032;-65
2022/05/13 07:45:18;;;;;;;1.63;1.10;;;26.40;47.10;;;;;;5021338;28;20457;-61
2022/05/13 07:47:44;;;;;;;1.38;1.17;;;26.40;47.10;;;;;;5021957;28;20529;-65
2022/05/13 07:50:14;;;;;;;1.17;1.00;;;26.40;47.10;;;;;;5018144;28;20457;-62
2022/05/13 07:52:41;;;;;;;1.35;1.10;;;26.40;47.10;;;;;;5020434;28;20149;-65
2022/05/13 07:55:10;;;;;;;1.10;1.00;;;26.50;47.20;;;;;;5018948;28;20079;-63
2022/05/13 07:57:40;;;;;;;1.70;1.10;;;26.50;47.20;;;;;;5020701;28;20059;-64
2022/05/13 08:00:26;;;;;;;1.20;1.00;;;26.50;47.20;;;;;;5021086;28;20446;-64
2022/05/13 08:02:54;;;;;;;1.50;1.20;;;26.50;47.20;;;;;;5022843;28;20029;-65
2022/05/13 08:05:20;;;;;;;1.10;1.00;;;26.50;47.30;;;;;;5018029;28;20040;-62
2022/05/13 08:07:45;;;;;;;1.50;1.15;;;26.50;47.20;;;;;;5020976;28;20521;-65
2022/05/13 08:10:11;;;;;;;1.67;1.15;;;26.50;47.10;;;;;;5018098;28;20137;-61
2022/05/13 08:12:37;;;;;;;1.23;1.05;;;26.60;47.20;;;;;;5021448;28;20039;-63
2022/05/13 08:15:03;;;;;;;1.88;1.30;;;26.60;47.20;;;;;;5020134;28;20461;-64
2022/05/13 08:17:33;;;;;;;1.25;1.13;;;26.50;47.10;;;;;;5020022;28;20389;-63
2022/05/13 08:19:59;;;;;;;1.90;1.20;;;26.60;47.10;;;;;;5021132;28;20091;-65
2022/05/13 08:22:25;;;;;;;1.52;1.20;;;26.60;47.10;;;;;;5020480;28;20450;-65
2022/05/13 08:24:51;;;;;;;1.73;1.15;;;26.60;47.20;;;;;;5022136;28;20036;-64
2022/05/13 08:27:17;;;;;;;1.60;1.25;;;26.60;47.70;;;;;;5019287;28;20116;-62
2022/05/13 08:29:42;;;;;;;1.42;1.10;;;26.60;47.20;;;;;;5019136;28;20117;-64
2022/05/13 08:32:08;;;;;;;1.77;1.15;;;26.60;47.40;;;;;;5022693;28;20120;-61
2022/05/13 08:34:34;;;;;;;1.75;1.13;;;26.60;47.50;;;;;;5018809;28;20029;-62
2022/05/13 08:36:59;;;;;;;1.40;1.10;;;26.60;47.30;;;;;;5021333;28;20104;-61
2022/05/13 08:39:25;;;;;;;1.05;0.95;;;26.60;47.40;;;;;;5019757;28;20493;-61
2022/05/13 08:41:59;;;;;;;1.63;1.02;;;26.70;47.60;;;;;;5020387;28;20061;-61
2022/05/13 08:44:26;;;;;;;1.45;1.20;;;26.60;47.50;;;;;;5022580;28;20025;-65
2022/05/13 08:47:13;;;;;;;1.80;1.10;;;26.60;47.60;;;;;;5022666;28;20978;-64
2022/05/13 08:50:07;;;;;;;1.17;1.00;;;26.70;47.70;;;;;;5017605;28;20059;-64
2022/05/13 08:55:27;;;;;;;1.30;1.05;;;26.70;47.80;;;;;;5018988;28;20036;-65
2022/05/13 08:57:55;;;;;;;1.98;1.20;;;26.70;47.90;;;;;;5018604;28;20029;-61
2022/05/13 09:00:42;;;;;;;1.80;1.15;;;26.70;47.60;;;;;;5018435;28;20414;-62
2022/05/13 09:03:40;;;;;;;1.35;1.10;;;26.70;47.60;;;;;;5018641;28;20048;-63
2022/05/13 09:06:16;;;;;;;2.38;1.20;;;26.70;47.80;;;;;;5019280;28;20045;-64
2022/05/13 09:08:42;;;;;;;1.60;1.20;;;26.70;47.60;;;;;;5020106;28;20035;-64
2022/05/13 09:11:19;;;;;;;1.95;1.30;;;26.70;47.60;;;;;;5020711;28;20037;-65
2022/05/13 09:13:49;;;;;;;1.70;1.10;;;26.80;47.70;;;;;;5021614;28;20037;-64
2022/05/13 09:16:25;;;;;;;1.10;1.00;;;26.80;47.70;;;;;;5017098;28;20033;-64
2022/05/13 09:19:04;;;;;;;1.65;1.20;;;26.80;47.50;;;;;;5017159;28;20025;-63
2022/05/13 09:21:30;;;;;;;1.73;1.20;;;26.80;47.50;;;;;;5019917;28;20553;-61
2022/05/13 09:23:56;;;;;;;1.40;1.10;;;26.80;47.40;;;;;;5017529;28;20102;-65
2022/05/13 09:26:24;;;;;;;1.58;1.20;;;26.80;47.30;;;;;;5020284;28;20029;-64
2022/05/13 09:29:13;;;;;;;1.80;1.40;;;26.70;47.20;;;;;;5021192;28;20037;-62
2022/05/13 09:31:42;;;;;;;1.60;1.20;;;26.70;47.30;;;;;;5016974;28;20053;-62
2022/05/13 09:34:30;;;;;;;1.70;1.30;;;26.70;47.20;;;;;;5016089;28;20292;-61
2022/05/13 09:37:21;;;;;;;4.00;1.40;;;26.70;47.30;;;;;;5020344;28;20411;-62
2022/05/13 09:40:03;;;;;;;1.65;1.05;;;26.70;47.40;;;;;;5012854;28;20037;-61
2022/05/13 09:42:41;;;;;;;1.98;1.35;;;26.70;47.70;;;;;;5020067;28;20075;-65
2022/05/13 09:45:16;;;;;;;2.97;1.60;;;26.70;47.40;;;;;;5019208;28;20105;-62
2022/05/13 09:47:44;;;;;;;2.70;1.70;;;26.70;47.30;;;;;;5018342;28;20387;-63
2022/05/13 09:50:31;;;;;;;3.65;1.90;;;26.70;47.40;;;;;;5020077;28;20029;-62
2022/05/13 09:53:22;;;;;;;3.65;2.20;;;26.70;47.50;;;;;;5024132;28;20068;-62
2022/05/13 09:55:57;;;;;;;3.97;2.00;;;26.70;47.60;;;;;;5021725;28;20029;-65
2022/05/13 09:58:33;;;;;;;4.85;1.85;;;26.60;48.30;;;;;;5019642;28;20025;-64
2022/05/13 10:01:13;;;;;;;3.10;1.63;;;26.60;48.00;;;;;;5017623;28;20631;-63
2022/05/13 10:03:40;;;;;;;2.72;1.80;;;26.60;48.50;;;;;;5021609;28;20492;-65
2022/05/13 10:06:19;;;;;;;2.97;1.60;;;26.60;48.40;;;;;;5019494;28;21034;-64
2022/05/13 10:15:20;;;;;;;2.75;1.55;;;26.50;48.40;;;;;;5011737;28;20049;-64
2022/05/13 10:17:51;;;;;;;2.72;1.70;;;26.50;48.40;;;;;;5019219;28;20029;-64
2022/05/13 10:20:30;;;;;;;3.92;1.65;;;26.50;48.50;;;;;;5014403;28;20144;-64
2022/05/13 10:23:16;;;;;;;;;;;26.50;48.50;;;;;;5018896;28;20061;-61
2022/05/13 10:25:57;;;;;;;2.45;1.55;;;26.50;48.60;;;;;;5013593;28;20727;-61
2022/05/13 10:28:31;;;;;;;2.95;1.40;;;26.50;48.70;;;;;;5015376;28;20041;-62
2022/05/13 10:31:20;;;;;;;3.20;1.70;;;26.50;48.90;;;;;;5014145;28;20103;-64
2022/05/13 10:33:57;;;;;;;3.00;1.50;;;26.50;48.80;;;;;;5011473;28;20032;-62
2022/05/13 10:36:42;;;;;;;2.53;1.48;;;26.40;48.60;;;;;;5015715;28;20120;-62
2022/05/13 10:39:13;;;;;;;3.47;1.50;;;26.40;48.60;;;;;;5014923;28;20052;-61
2022/05/13 10:42:11;;;;;;;3.38;1.63;;;26.40;48.50;;;;;;5016077;28;20036;-60
2022/05/13 10:45:05;;;;;;;2.92;1.38;;;26.40;48.60;;;;;;4969643;28;20146;-62
2022/05/13 10:47:41;;;;;;;3.60;1.40;;;26.40;48.60;;;;;;5016018;28;20128;-61
2022/05/13 10:50:20;;;;;;;2.53;1.60;;;26.40;48.60;;;;;;5016375;28;20037;-60
2022/05/13 10:53:00;;;;;;;3.17;1.50;;;26.40;48.70;;;;;;5019797;28;20111;-61
2022/05/13 10:55:47;;;;;;;3.20;1.67;;;26.40;48.70;;;;;;5017232;28;20044;-61
2022/05/13 10:58:41;;;;;;;3.78;1.85;;;26.40;48.60;;;;;;5019337;28;20025;-61
2022/05/13 11:01:07;;;;;;;3.03;1.60;;;26.40;48.60;;;;;;5016842;28;20084;-62
2022/05/13 11:03:41;;;;;;;3.30;1.42;;;26.40;48.70;;;;;;5017208;28;20029;-63
2022/05/13 11:06:28;;;;;;;3.10;1.83;;;26.40;48.60;;;;;;5016611;28;20030;-60
2022/05/13 11:09:02;;;;;;;4.28;1.92;;;26.40;48.40;;;;;;5012273;28;20638;-62
2022/05/13 11:11:40;;;;;;;2.97;1.73;;;26.50;48.40;;;;;;5015913;28;20060;-60
2022/05/13 11:14:39;;;;;;;2.92;1.60;;;26.50;48.40;;;;;;5008403;28;20036;-60
2022/05/13 11:17:30;;;;;;;2.47;1.50;;;26.50;48.80;;;;;;5014433;28;20523;-61
2022/05/13 11:20:11;;;;;;;3.53;1.55;;;26.50;48.30;;;;;;5015668;28;20513;-61
2022/05/13 11:22:44;;;;;;;2.72;1.52;;;26.50;48.30;;;;;;5017276;28;20053;-60
2022/05/13 11:28:32;;;;;;;3.20;1.50;;;26.40;48.20;;;;;;5018253;28;20087;-60
2022/05/13 11:31:16;;;;;;;2.80;1.58;;;26.40;48.20;;;;;;5014795;28;20044;-62
2022/05/13 11:33:56;;;;;;;2.60;1.40;;;26.50;48.20;;;;;;5016789;28;20141;-60
2022/05/13 11:36:44;;;;;;;2.35;1.20;;;26.40;48.10;;;;;;5019386;28;20029;-60
2022/05/13 11:39:48;;;;;;;3.33;1.65;;;26.40;48.10;;;;;;4997556;28;20025;-61
2022/05/13 11:42:17;;;;;;;2.70;1.40;;;26.40;48.10;;;;;;5004988;28;20041;-63
2022/05/13 11:45:09;;;;;;;2.47;1.30;;;26.40;48.10;;;;;;5016470;28;20041;-61
2022/05/13 11:47:58;;;;;;;2.55;1.52;;;26.40;48.10;;;;;;5018784;28;20589;-60
2022/05/13 11:50:26;;;;;;;3.33;1.50;;;26.40;48.10;;;;;;5015485;28;20941;-61
2022/05/13 11:52:53;;;;;;;2.20;1.30;;;26.40;48.10;;;;;;5017318;28;20132;-62
2022/05/13 11:55:41;;;;;;;1.98;1.20;;;26.40;48.10;;;;;;5008892;28;20029;-61
2022/05/13 11:58:08;;;;;;;2.28;1.35;;;26.40;48.10;;;;;;5016441;28;20074;-61
2022/05/13 12:00:41;;;;;;;2.28;1.30;;;26.30;48.00;;;;;;5014067;28;20535;-60
2022/05/13 12:03:09;;;;;;;2.28;1.33;;;26.30;48.00;;;;;;5013475;28;20040;-60
2022/05/13 12:05:50;;;;;;;2.92;1.48;;;26.30;48.00;;;;;;5010731;28;20041;-60
2022/05/13 12:08:31;;;;;;;2.75;1.55;;;26.30;48.00;;;;;;5014030;28;20032;-60
2022/05/13 12:11:03;;;;;;;2.35;1.35;;;26.30;48.10;;;;;;5017632;28;20029;-62
2022/05/13 12:13:34;;;;;;;2.13;1.23;;;26.30;48.10;;;;;;5009040;28;20056;-61
2022/05/13 12:16:06;;;;;;;2.53;1.30;;;26.30;48.10;;;;;;5006485;28;20094;-61
2022/05/13 12:18:46;;;;;;;2.10;1.20;;;26.30;48.10;;;;;;5008149;28;20556;-62
2022/05/13 12:21:46;;;;;;;2.63;1.45;;;26.30;48.10;;;;;;5011125;28;20029;-63
2022/05/13 12:24:12;;;;;;;2.88;1.42;;;26.20;47.10;;;;;;5004582;28;20485;-61
2022/05/13 12:26:54;;;;;;;2.83;1.55;;;26.20;46.90;;;;;;5013279;28;20036;-60
2022/05/13 12:29:38;;;;;;;3.53;1.60;;;26.10;46.50;;;;;;5012447;28;20150;-60
2022/05/13 12:32:04;;;;;;;2.40;1.70;;;26.10;46.50;;;;;;5011662;28;20038;-62
2022/05/13 12:37:36;;;;;;;2.80;1.42;;;26.00;46.50;;;;;;5011100;28;20052;-61
2022/05/13 12:40:02;;;;;;;2.67;1.70;;;26.00;46.70;;;;;;5011051;28;20071;-61
2022/05/13 12:42:46;;;;;;;4.10;1.60;;;25.90;46.70;;;;;;5012673;28;20350;-61
2022/05/13 12:45:37;;;;;;;3.10;1.27;;;25.90;46.90;;;;;;5012574;28;20060;-61
2022/05/13 12:48:09;;;;;;;2.83;1.60;;;25.90;47.20;;;;;;5011320;28;20037;-60
2022/05/13 12:50:40;;;;;;;2.67;1.40;;;25.90;47.20;;;;;;5012465;28;20539;-61
2022/05/13 12:53:28;;;;;;;3.33;1.80;;;25.90;47.00;;;;;;5011905;28;20354;-60
2022/05/13 12:55:57;;;;;;;3.08;1.63;;;25.90;46.80;;;;;;5021783;28;20037;-61
2022/05/13 12:58:25;;;;;;;2.70;1.60;;;25.90;46.80;;;;;;5012024;28;20028;-62
2022/05/13 13:00:53;;;;;;;2.72;1.42;;;25.90;46.70;;;;;;5011281;28;20045;-60
2022/05/13 13:03:20;;;;;;;2.65;1.40;;;25.90;46.70;;;;;;5010953;28;20024;-61
2022/05/13 13:05:59;;;;;;;2.53;1.38;;;25.90;46.70;;;;;;5007452;28;20133;-62
2022/05/13 13:08:33;;;;;;;2.50;1.40;;;25.90;46.80;;;;;;5009002;28;20397;-60
2022/05/13 13:11:28;;;;;;;2.08;1.25;;;25.90;46.60;;;;;;5010055;28;20420;-60
2022/05/13 13:14:00;;;;;;;2.45;1.50;;;25.90;46.80;;;;;;5011244;28;20033;-62
2022/05/13 13:16:43;;;;;;;2.72;1.42;;;25.90;46.30;;;;;;5008688;28;20033;-62
2022/05/13 13:19:21;;;;;;;2.95;1.35;;;25.90;45.90;;;;;;5009941;28;20037;-60
2022/05/13 13:21:56;;;;;;;3.43;1.37;;;25.90;45.90;;;;;;5010900;28;21379;-60
2022/05/13 13:24:27;;;;;;;2.65;1.27;;;25.90;46.20;;;;;;5013201;28;20395;-60
2022/05/13 13:26:53;;;;;;;3.00;1.58;;;25.90;45.80;;;;;;5014893;28;20049;-59
2022/05/13 13:29:27;;;;;;;2.10;1.25;;;25.90;45.70;;;;;;5015338;28;20378;-61
2022/05/13 13:31:58;;;;;;;1.85;1.13;;;25.90;45.90;;;;;;5015838;28;20042;-61
2022/05/13 13:35:01;;;;;;;2.15;1.23;;;25.90;45.80;;;;;;4995632;28;20788;-62
2022/05/13 13:37:38;;;;;;;2.03;1.20;;;25.90;45.50;;;;;;5013536;28;20501;-61
2022/05/13 13:40:23;;;;;;;2.00;1.10;;;25.90;45.60;;;;;;5015435;28;20568;-60
2022/05/13 13:42:49;;;;;;;2.42;1.30;;;26.00;45.20;;;;;;5016040;28;20350;-59